Time;durP1;ratioP1;P1;durP2;ratioP2;P2;SDS_P1;SDS_P2;PMS_P1;PMS_P2;Temp;Humidity;BMP_temperature;BMP_pressure;BME280_temperature;BME280_humidity;BME280_pressure;Samples;Min_cycle;Max_cycle;Signal;HPM_P1;HPM_P2
2022/08/19 00:00:14;;;;;;;12.52;11.23;;;;;;;17.16;100.00;68675.81;4930892;29;20035;-91
2022/08/19 00:02:40;;;;;;;12.23;10.88;;;;;;;;;;4948103;28;20154;-91
2022/08/19 00:05:07;;;;;;;12.85;10.00;;;;;;;17.01;100.00;68664.09;4950136;28;20134;-91
2022/08/19 00:07:33;;;;;;;12.57;11.13;;;;;;;16.96;100.00;68653.03;4943575;28;20046;-91
2022/08/19 00:09:58;;;;;;;12.43;10.77;;;;;;;16.90;100.00;68646.75;4952428;29;20043;-91
2022/08/19 00:12:23;;;;;;;12.45;11.15;;;;;;;16.84;100.00;68645.28;4950453;28;20114;-90
2022/08/19 00:14:49;;;;;;;12.07;10.77;;;;;;;;;;4917065;29;20052;-91
2022/08/19 00:17:14;;;;;;;14.52;10.70;;;;;;;16.77;100.00;68632.47;4949485;28;20532;-90
2022/08/19 00:19:40;;;;;;;12.77;10.88;;;;;;;16.72;100.00;68632.16;4934463;29;20077;-91
2022/08/19 00:22:07;;;;;;;12.07;10.30;;;;;;;;;;4935269;29;20380;-90
2022/08/19 00:24:32;;;;;;;14.10;11.18;;;;;;;;;;4932856;29;20403;-90
2022/08/19 00:26:58;;;;;;;13.98;11.23;;;;;;;16.65;100.00;68624.72;4934495;29;20054;-90
2022/08/19 00:29:24;;;;;;;14.85;11.30;;;;;;;16.62;100.00;68615.94;4949472;28;20429;-90
2022/08/19 00:31:53;;;;;;;13.27;11.88;;;;;;;16.60;100.00;68619.03;4953282;29;20042;-91
2022/08/19 00:34:18;;;;;;;13.20;10.90;;;;;;;16.59;100.00;68612.50;4932314;29;20098;-90
2022/08/19 00:36:45;;;;;;;12.70;11.30;;;;;;;16.55;100.00;68604.69;4947076;28;20939;-90
2022/08/19 00:39:11;;;;;;;13.63;11.38;;;;;;;16.51;100.00;68608.19;4926583;28;20043;-90
2022/08/19 00:41:37;;;;;;;19.30;11.68;;;;;;;16.45;100.00;68602.47;4948437;29;20433;-90
2022/08/19 00:44:13;;;;;;;14.98;12.20;;;;;;;16.42;100.00;68593.13;4932525;28;20047;-90
2022/08/19 00:46:42;;;;;;;14.38;11.48;;;;;;;16.39;100.00;68590.28;4951515;29;20497;-91
2022/08/19 00:49:40;;;;;;;15.35;11.52;;;;;;;16.39;100.00;68595.09;4949913;29;20128;-90
2022/08/19 00:52:14;;;;;;;15.90;11.70;;;;;;;16.39;100.00;68590.28;4896740;28;20039;-91
2022/08/19 00:54:41;;;;;;;14.00;11.63;;;;;;;;;;4951256;29;20066;-90
2022/08/19 00:57:08;;;;;;;18.30;11.68;;;;;;;;;;4951192;28;20138;-91
2022/08/19 00:59:38;;;;;;;17.20;13.07;;;;;;;16.41;100.00;68592.56;4933623;29;20047;-90
2022/08/19 01:02:03;;;;;;;16.92;13.75;;;;;;;;;;4951194;29;20521;-91
2022/08/19 01:04:29;;;;;;;17.05;14.50;;;;;;;16.43;100.00;68594.84;4934651;29;20055;-90
2022/08/19 01:06:56;;;;;;;16.80;13.68;;;;;;;16.36;100.00;68583.59;4950887;29;20122;-91
2022/08/19 01:09:21;;;;;;;19.52;15.27;;;;;;;16.32;100.00;68582.31;4944221;28;20039;-91
2022/08/19 01:11:47;;;;;;;17.98;15.70;;;;;;;16.35;100.00;68582.47;4950830;29;20047;-91
2022/08/19 01:14:13;;;;;;;18.52;15.98;;;;;;;16.31;100.00;68581.16;4935159;29;20050;-92
2022/08/19 01:16:40;;;;;;;17.67;14.80;;;;;;;16.29;100.00;68584.25;4949807;29;20402;-91
2022/08/19 01:19:21;;;;;;;17.35;15.27;;;;;;;;;;4930005;29;20035;-91
2022/08/19 01:21:51;;;;;;;18.15;15.23;;;;;;;;;;4944198;28;20151;-90
2022/08/19 01:24:16;;;;;;;20.20;15.73;;;;;;;16.22;100.00;68571.47;4925197;29;20055;-90
2022/08/19 01:26:44;;;;;;;19.67;15.15;;;;;;;16.21;100.00;68575.13;4939029;29;20094;-91
2022/08/19 01:29:10;;;;;;;20.25;15.88;;;;;;;;;;4931179;29;20502;-90
2022/08/19 01:31:36;;;;;;;18.30;15.18;;;;;;;16.22;100.00;68570.91;4931898;29;20054;-91
2022/08/19 01:34:06;;;;;;;19.73;15.45;;;;;;;16.19;100.00;68567.47;4933321;29;20051;-91
2022/08/19 01:36:35;;;;;;;20.40;17.73;;;;;;;16.21;100.00;68575.13;4951336;28;20043;-90
2022/08/19 01:39:02;;;;;;;;;;;;;;;16.19;100.00;68568.03;4955624;29;20189;-91
2022/08/19 01:41:27;;;;;;;20.65;17.77;;;;;;;16.11;100.00;68553.56;4952846;28;20377;-91
2022/08/19 01:43:53;;;;;;;23.50;19.15;;;;;;;16.07;100.00;68559.75;4935963;29;20240;-91
2022/08/19 01:46:19;;;;;;;20.73;17.65;;;;;;;16.08;100.00;68560.31;4945353;28;20066;-91
2022/08/19 01:48:45;;;;;;;21.80;17.50;;;;;;;16.09;100.00;68561.47;4939052;29;20039;-91
2022/08/19 01:51:12;;;;;;;20.00;17.35;;;;;;;16.06;100.00;68558.03;4954361;29;20035;-91
2022/08/19 01:53:38;;;;;;;22.27;17.63;;;;;;;16.05;100.00;68552.09;4934503;29;20047;-91
2022/08/19 01:56:04;;;;;;;22.27;17.65;;;;;;;15.99;100.00;68551.19;4954045;28;20138;-90
2022/08/19 01:58:41;;;;;;;23.55;18.48;;;;;;;16.00;100.00;68551.78;4947834;28;20047;-91
2022/08/19 02:01:07;;;;;;;21.52;17.40;;;;;;;16.07;100.00;68551.13;4936452;29;20035;-91
2022/08/19 02:03:34;;;;;;;22.40;18.20;;;;;;;;;;4921735;29;20502;-91
2022/08/19 02:06:00;;;;;;;20.85;17.67;;;;;;;;;;4946106;29;20070;-90
2022/08/19 02:08:29;;;;;;;19.20;17.20;;;;;;;;;;4932948;29;20485;-91
2022/08/19 02:10:55;;;;;;;21.65;18.17;;;;;;;16.03;100.00;68549.81;4953075;29;20071;-91
2022/08/19 02:13:21;;;;;;;23.15;18.73;;;;;;;15.97;100.00;68548.91;4930391;29;20041;-91
2022/08/19 02:15:46;;;;;;;22.58;18.13;;;;;;;15.95;100.00;68546.63;4947182;28;20048;-91
2022/08/19 02:18:12;;;;;;;21.65;18.25;;;;;;;15.92;100.00;68537.84;4951704;29;20071;-90
2022/08/19 02:20:38;;;;;;;23.48;19.85;;;;;;;15.91;100.00;68536.13;4935538;28;20209;-90
2022/08/19 02:23:05;;;;;;;26.17;19.85;;;;;;;15.87;100.00;68537.50;4954147;29;20223;-90
2022/08/19 02:25:30;;;;;;;22.30;19.17;;;;;;;15.84;100.00;68528.72;4957556;28;20043;-91
2022/08/19 02:27:56;;;;;;;21.90;18.75;;;;;;;15.84;100.00;68528.72;4959046;29;20039;-90
2022/08/19 02:30:22;;;;;;;21.75;18.25;;;;;;;15.78;100.00;68521.91;4919152;29;20040;-91
2022/08/19 02:32:47;;;;;;;22.75;18.08;;;;;;;15.73;100.00;68516.75;4916641;29;20482;-91
2022/08/19 02:35:14;;;;;;;21.88;18.42;;;;;;;15.68;100.00;68516.44;4928594;29;20067;-90
2022/08/19 02:40:24;;;;;;;23.98;18.60;;;;;;;15.65;100.00;68507.06;4944713;28;20119;-91
2022/08/19 02:42:50;;;;;;;23.10;17.88;;;;;;;;;;4936150;29;20047;-91
2022/08/19 02:45:15;;;;;;;21.60;18.30;;;;;;;15.60;100.00;68498.69;4947635;28;20089;-91
2022/08/19 02:47:41;;;;;;;20.42;18.15;;;;;;;15.58;100.00;68500.22;4951365;28;20117;-91
2022/08/19 02:50:07;;;;;;;21.75;18.45;;;;;;;15.60;100.00;68506.75;4934784;29;20039;-90
2022/08/19 02:52:34;;;;;;;20.55;17.80;;;;;;;15.56;100.00;68503.31;4919621;29;20039;-91
2022/08/19 02:54:59;;;;;;;21.65;17.98;;;;;;;15.57;100.00;68503.88;4962979;23;20043;-76
2022/08/19 02:57:25;;;;;;;20.10;17.90;;;;;;;15.56;100.00;68497.97;4954261;28;20137;-78
2022/08/19 02:59:51;;;;;;;22.17;17.40;;;;;;;15.51;100.00;68491.69;4954677;28;20175;-78
2022/08/19 03:02:16;;;;;;;21.85;19.23;;;;;;;;;;4953762;28;20074;-78
2022/08/19 03:04:42;;;;;;;24.92;19.23;;;;;;;15.43;100.00;68487.94;4954625;28;20043;-78
2022/08/19 03:07:07;;;;;;;23.95;18.75;;;;;;;;;;4952058;29;20039;-78
2022/08/19 03:09:33;;;;;;;25.17;21.10;;;;;;;15.41;100.00;68480.28;4952572;28;20039;-77
2022/08/19 03:11:58;;;;;;;23.42;18.95;;;;;;;;;;4951999;28;20126;-77
2022/08/19 03:14:23;;;;;;;23.80;18.98;;;;;;;;;;4950515;28;20503;-77
2022/08/19 03:16:50;;;;;;;22.00;18.98;;;;;;;;;;4953267;28;20059;-78
2022/08/19 03:19:17;;;;;;;25.38;19.98;;;;;;;15.37;100.00;68473.63;4952062;28;20051;-79
2022/08/19 03:21:44;;;;;;;26.02;20.73;;;;;;;;;;4953175;28;20047;-77
2022/08/19 03:24:10;;;;;;;26.38;20.33;;;;;;;15.44;100.00;68489.06;4952667;28;20039;-77
2022/08/19 03:26:43;;;;;;;24.27;20.25;;;;;;;15.52;100.00;68493.38;4951453;28;20043;-78
2022/08/19 03:29:10;;;;;;;25.80;20.48;;;;;;;15.51;100.00;68497.06;4950876;28;20039;-77
2022/08/19 03:31:37;;;;;;;25.73;21.33;;;;;;;15.57;100.00;68499.09;4949492;28;20094;-78
2022/08/19 03:34:02;;;;;;;25.63;20.60;;;;;;;;;;4951301;28;20454;-78
2022/08/19 03:36:27;;;;;;;24.15;19.77;;;;;;;;;;4947668;28;20051;-78
2022/08/19 03:38:54;;;;;;;25.90;21.45;;;;;;;;;;4951517;28;20138;-78
2022/08/19 03:41:36;;;;;;;28.65;22.55;;;;;;;15.57;100.00;68498.53;4946005;28;20035;-78
2022/08/19 03:44:01;;;;;;;27.90;23.20;;;;;;;;;;4940542;28;20067;-77
2022/08/19 03:46:29;;;;;;;28.98;23.00;;;;;;;15.54;100.00;68495.09;4941147;28;20081;-77
2022/08/19 03:48:56;;;;;;;29.98;23.23;;;;;;;;;;4963557;23;20058;-77
2022/08/19 03:51:28;;;;;;;27.50;22.67;;;;;;;;;;4963125;28;20043;-77
2022/08/19 03:53:55;;;;;;;27.48;22.33;;;;;;;15.60;100.00;68501.38;4951546;28;20118;-77
2022/08/19 03:56:20;;;;;;;25.75;21.70;;;;;;;15.55;100.00;68496.25;4948566;28;20039;-76
2022/08/19 03:58:46;;;;;;;26.15;20.25;;;;;;;;;;4943035;28;20049;-77
2022/08/19 04:01:13;;;;;;;23.52;20.05;;;;;;;;;;4940897;28;20078;-76
2022/08/19 04:03:38;;;;;;;27.30;20.70;;;;;;;;;;4934684;28;20052;-77
2022/08/19 04:06:26;;;;;;;28.05;21.10;;;;;;;15.50;100.00;68496.47;4943660;28;20106;-78
2022/08/19 04:08:54;;;;;;;26.38;21.02;;;;;;;15.44;100.00;68489.63;4922373;29;20334;-79
2022/08/19 04:11:22;;;;;;;24.52;21.13;;;;;;;15.40;100.00;68479.16;4929909;28;20071;-77
2022/08/19 04:13:50;;;;;;;26.55;21.17;;;;;;;15.41;100.00;68480.84;4943313;28;20317;-78
2022/08/19 04:16:17;;;;;;;25.00;20.67;;;;;;;15.39;100.00;68478.56;4929061;28;20582;-77
2022/08/19 04:18:43;;;;;;;26.70;20.48;;;;;;;15.41;100.00;68480.84;4931127;29;20047;-78
2022/08/19 04:21:08;;;;;;;26.00;19.70;;;;;;;;;;4930883;28;20396;-78
2022/08/19 04:23:35;;;;;;;27.17;21.20;;;;;;;15.38;100.00;68482.81;4926483;29;20043;-77
2022/08/19 04:26:02;;;;;;;29.48;21.80;;;;;;;15.37;100.00;68475.75;4922109;29;20503;-77
2022/08/19 04:28:28;;;;;;;26.42;21.20;;;;;;;15.40;100.00;68484.53;4942972;28;20050;-80
2022/08/19 04:30:55;;;;;;;27.50;21.92;;;;;;;15.40;100.00;68479.72;4929226;28;20044;-77
2022/08/19 04:33:22;;;;;;;28.98;21.42;;;;;;;;;;4922385;28;20136;-76
2022/08/19 04:35:48;;;;;;;28.02;21.88;;;;;;;;;;4921907;28;20040;-78
2022/08/19 04:38:15;;;;;;;29.58;22.10;;;;;;;;;;4943366;28;20047;-79
2022/08/19 04:43:31;;;;;;;29.40;23.38;;;;;;;15.30;100.00;68468.31;4934882;29;20075;-78
2022/08/19 04:45:57;;;;;;;32.67;25.13;;;;;;;;;;4926714;29;20558;-78
2022/08/19 04:48:26;;;;;;;31.27;26.10;;;;;;;15.26;100.00;68464.34;4929758;28;20047;-76
2022/08/19 04:50:58;;;;;;;30.73;25.27;;;;;;;15.27;100.00;68465.47;4932038;28;20066;-78
2022/08/19 04:53:25;;;;;;;31.45;25.05;;;;;;;;;;4935923;28;20051;-78
2022/08/19 04:55:51;;;;;;;31.63;25.92;;;;;;;15.30;100.00;68476.38;4940594;28;20122;-78
2022/08/19 04:58:17;;;;;;;29.67;23.27;;;;;;;15.31;100.00;68467.34;4936524;29;20139;-77
2022/08/19 05:00:43;;;;;;;30.92;23.33;;;;;;;15.27;100.00;68465.47;4947175;28;20127;-76
2022/08/19 05:03:08;;;;;;;31.08;23.83;;;;;;;15.24;100.00;68461.50;4960807;28;20405;-76
2022/08/19 05:05:38;;;;;;;30.30;23.33;;;;;;;15.22;100.00;68459.22;4948312;28;20043;-76
2022/08/19 05:08:04;;;;;;;34.22;25.30;;;;;;;15.25;100.00;68468.00;4943674;28;20043;-76
2022/08/19 05:10:30;;;;;;;33.30;25.33;;;;;;;15.26;100.00;68463.78;4938058;28;20402;-78
2022/08/19 05:12:57;;;;;;;31.05;24.83;;;;;;;;;;4951585;28;20039;-79
2022/08/19 05:15:22;;;;;;;28.88;23.88;;;;;;;;;;4948915;28;20476;-76
2022/08/19 05:22:34;;;;;;;30.88;22.70;;;;;;;15.40;100.00;68479.16;4950774;28;21852;-78
2022/08/19 05:23:17;;;;;;;31.85;24.00;;;;;;;15.52;100.00;68492.81;4941508;28;20046;-78
2022/08/19 05:25:42;;;;;;;30.48;23.80;;;;;;;15.56;100.00;68497.38;4926106;29;20039;-76
2022/08/19 05:28:08;;;;;;;28.40;22.15;;;;;;;;;;4941451;28;20035;-76
2022/08/19 05:30:33;;;;;;;28.38;23.60;;;;;;;;;;4932565;29;20047;-78
2022/08/19 05:32:59;;;;;;;28.90;22.15;;;;;;;15.68;100.00;68510.50;4943098;28;20443;-78
2022/08/19 05:35:24;;;;;;;27.95;21.08;;;;;;;;;;4951629;28;20044;-78
2022/08/19 05:37:50;;;;;;;26.10;21.60;;;;;;;15.86;100.00;68530.44;4944462;28;20134;-78
2022/08/19 05:40:15;;;;;;;26.55;22.52;;;;;;;15.84;100.00;68528.72;4950210;28;20115;-78
2022/08/19 05:42:40;;;;;;;29.17;22.52;;;;;;;15.87;100.00;68531.59;4935434;29;20499;-78
2022/08/19 05:45:07;;;;;;;26.88;22.40;;;;;;;15.94;100.00;68539.53;4940679;28;20459;-78
2022/08/19 05:47:32;;;;;;;30.05;24.52;;;;;;;16.00;100.00;68552.34;4933671;29;20051;-78
2022/08/19 05:49:59;;;;;;;30.00;23.48;;;;;;;16.09;100.00;68556.66;4930347;29;20095;-78
2022/08/19 05:52:24;;;;;;;28.92;22.60;;;;;;;;;;4940108;29;20801;-78
2022/08/19 05:54:50;;;;;;;31.92;23.17;;;;;;;16.27;100.00;68581.97;4933063;29;20051;-78
2022/08/19 05:57:16;;;;;;;32.97;26.02;;;;;;;;;;4949256;28;20054;-78
2022/08/19 05:59:42;;;;;;;28.25;23.48;;;;;;;;;;4952949;28;20521;-78
2022/08/19 06:02:07;;;;;;;32.88;26.30;;;;;;;16.55;100.00;68604.69;4946486;28;20040;-78
2022/08/19 06:04:33;;;;;;;29.45;25.50;;;;;;;16.63;100.00;68617.06;4938657;28;20094;-78
2022/08/19 06:06:59;;;;;;;32.17;24.92;;;;;;;16.75;100.00;68630.19;4930346;29;20046;-78
2022/08/19 06:09:25;;;;;;;35.13;26.20;;;;;;;16.85;100.00;68641.59;4948903;28;20415;-78
2022/08/19 06:11:54;;;;;;;36.92;27.20;;;;;;;16.98;100.00;68655.31;4942957;28;20196;-78
2022/08/19 06:14:23;;;;;;;33.42;27.23;;;;;;;17.10;100.00;68669.00;4945915;28;20697;-78
2022/08/19 06:16:51;;;;;;;39.95;28.98;;;;;;;17.19;100.00;68678.69;4939387;28;20036;-78
2022/08/19 06:19:19;;;;;;;36.27;28.30;;;;;;;17.23;100.00;68680.53;4943516;29;20384;-78
2022/08/19 06:21:47;;;;;;;33.47;28.50;;;;;;;17.22;100.00;68682.66;4933526;29;20043;-78
2022/08/19 06:24:16;;;;;;;35.95;28.83;;;;;;;17.23;100.00;68683.81;4945264;28;20035;-78
2022/08/19 06:26:43;;;;;;;40.67;33.25;;;;;;;17.17;100.00;68676.41;4945137;28;20043;-78
2022/08/19 06:29:09;;;;;;;40.35;32.35;;;;;;;;;;4944402;28;20059;-78
2022/08/19 06:31:36;;;;;;;39.55;33.15;;;;;;;;;;4933688;29;20051;-78
2022/08/19 06:34:03;;;;;;;41.20;34.72;;;;;;;17.42;100.00;68702.22;4952628;28;20039;-78
2022/08/19 06:36:35;;;;;;;40.53;33.28;;;;;;;17.52;100.00;68715.75;4936520;28;20040;-78
2022/08/19 06:39:11;;;;;;;37.05;28.55;;;;;;;;;;4934843;29;20043;-78
2022/08/19 06:41:37;;;;;;;36.38;29.00;;;;;;;;;;4939854;29;20055;-78
2022/08/19 06:44:03;;;;;;;35.28;28.15;;;;;;;17.71;100.00;68737.44;4934260;28;20051;-78
2022/08/19 06:46:29;;;;;;;34.83;26.98;;;;;;;;;;4955416;28;20048;-79
2022/08/19 06:48:55;;;;;;;35.15;28.80;;;;;;;;;;4946892;28;20142;-78
2022/08/19 06:51:22;;;;;;;34.75;28.70;;;;;;;17.98;100.00;68765.03;4941291;28;20304;-78
2022/08/19 06:53:49;;;;;;;34.97;28.60;;;;;;;17.98;100.00;68767.72;4950774;28;20045;-78
2022/08/19 06:56:16;;;;;;;37.00;29.35;;;;;;;18.06;100.00;68770.31;4941733;29;20090;-78
2022/08/19 06:58:41;;;;;;;34.25;26.45;;;;;;;18.11;100.00;68779.28;4946760;28;20050;-78
2022/08/19 07:01:08;;;;;;;34.92;27.50;;;;;;;18.23;100.00;68795.66;4941499;28;20043;-78
2022/08/19 07:03:35;;;;;;;32.53;26.23;;;;;;;18.36;100.00;68809.38;4942358;28;20078;-78
2022/08/19 07:06:10;;;;;;;32.33;23.52;;;;;;;18.40;100.00;68814.50;4947034;28;20043;-78
2022/08/19 07:08:37;;;;;;;26.45;21.33;;;;;;;18.54;100.00;68829.94;4949176;28;20074;-78
2022/08/19 07:11:07;;;;;;;31.75;23.13;;;;;;;18.63;100.00;68831.53;4953197;28;20071;-78
2022/08/19 07:13:36;;;;;;;30.48;22.17;;;;;;;18.75;100.00;68852.78;4952975;28;20051;-78
2022/08/19 07:16:07;;;;;;;27.95;21.08;;;;;;;18.84;100.00;68860.34;4944589;28;20055;-78
2022/08/19 07:18:33;;;;;;;25.55;21.15;;;;;;;18.89;100.00;68869.34;4942019;28;20040;-78
2022/08/19 07:21:07;;;;;;;27.42;20.60;;;;;;;18.99;100.00;68879.63;4934173;29;20507;-78
2022/08/19 07:23:33;;;;;;;26.38;20.88;;;;;;;19.08;100.00;68887.78;4934739;29;20044;-78
2022/08/19 07:26:05;;;;;;;26.33;19.70;;;;;;;19.14;100.00;68891.94;4935050;28;20285;-78
2022/08/19 07:28:31;;;;;;;29.98;20.45;;;;;;;19.29;99.22;68913.31;4938568;28;20043;-78
2022/08/19 07:30:56;;;;;;;28.20;19.67;;;;;;;19.42;99.45;68927.59;4941711;28;20450;-78
2022/08/19 07:33:21;;;;;;;24.88;18.98;;;;;;;;;;4946206;28;20526;-78
2022/08/19 07:35:47;;;;;;;22.93;20.37;;;;;;;19.53;98.88;68940.75;4934318;28;20054;-78
2022/08/19 07:38:12;;;;;;;26.08;18.92;;;;;;;;;;4953035;28;20337;-78
2022/08/19 07:40:37;;;;;;;24.13;18.83;;;;;;;19.61;98.22;68947.19;4945306;28;20051;-78
2022/08/19 07:43:02;;;;;;;25.77;19.73;;;;;;;;;;4933896;29;20280;-78
2022/08/19 07:45:28;;;;;;;25.75;19.05;;;;;;;19.80;97.95;68970.50;4933124;29;20517;-78
2022/08/19 07:47:54;;;;;;;25.65;19.42;;;;;;;19.88;97.67;68979.63;4934511;29;20088;-78
2022/08/19 07:50:20;;;;;;;26.55;19.63;;;;;;;19.97;97.78;68987.22;4929476;29;20620;-78
2022/08/19 07:52:46;;;;;;;23.30;19.73;;;;;;;20.20;97.02;69012.94;4931937;29;20040;-78
2022/08/19 07:55:12;;;;;;;23.35;18.15;;;;;;;20.35;96.38;69031.66;4932576;29;20050;-78
2022/08/19 07:57:38;;;;;;;24.00;19.30;;;;;;;20.41;95.28;69038.50;4932946;29;20044;-78
2022/08/19 08:00:05;;;;;;;25.42;19.20;;;;;;;20.51;95.04;69049.94;4941725;29;20039;-78
2022/08/19 08:02:31;;;;;;;22.60;20.00;;;;;;;20.67;93.98;69068.25;4946072;29;20059;-78
2022/08/19 08:10:24;;;;;;;23.92;17.08;;;;;;;21.04;92.83;69106.16;4947264;28;20159;-78
2022/08/19 08:12:50;;;;;;;21.98;17.70;;;;;;;21.21;91.79;69128.31;4937519;28;20506;-78
2022/08/19 08:15:16;;;;;;;23.20;16.50;;;;;;;21.27;91.46;69132.47;4945251;28;20103;-78
2022/08/19 08:17:42;;;;;;;18.10;15.20;;;;;;;21.37;91.05;69146.06;4935467;28;20130;-78
2022/08/19 08:20:08;;;;;;;21.67;18.55;;;;;;;;;;4943407;28;20430;-78
2022/08/19 08:25:20;;;;;;;21.27;18.85;;;;;;;21.59;88.88;69168.53;4937798;28;20143;-78
2022/08/19 08:27:46;;;;;;;20.40;18.20;;;;;;;21.60;88.43;69171.81;4942705;28;20526;-78
2022/08/19 08:30:16;;;;;;;24.70;20.35;;;;;;;21.70;89.34;69180.00;4935371;28;20534;-78
2022/08/19 08:32:42;;;;;;;24.52;21.90;;;;;;;21.76;88.67;69187.41;4934268;29;20067;-78
2022/08/19 08:35:11;;;;;;;24.95;21.83;;;;;;;21.82;88.02;69191.56;4930866;29;20115;-78
2022/08/19 08:37:36;;;;;;;;;;;;;;;21.81;88.50;69193.16;4932499;29;20049;-78
2022/08/19 08:40:16;;;;;;;27.25;23.33;;;;;;;21.71;89.25;69184.41;4945024;28;19918;-78
2022/08/19 08:42:51;;;;;;;25.05;22.45;;;;;;;21.81;89.08;69195.84;4950185;28;20468;-78
2022/08/19 08:45:18;;;;;;;25.70;21.98;;;;;;;21.94;88.06;69209.59;4929192;28;20051;-77
2022/08/19 08:47:48;;;;;;;28.77;24.23;;;;;;;21.97;87.94;69213.59;4947314;28;20039;-78
2022/08/19 08:50:18;;;;;;;29.42;23.98;;;;;;;;;;4942635;28;20039;-78
2022/08/19 08:52:50;;;;;;;26.92;22.00;;;;;;;22.04;87.05;69218.91;4930585;29;20076;-78
2022/08/19 08:55:22;;;;;;;25.10;20.45;;;;;;;21.98;87.07;69209.31;4929505;29;20134;-77
2022/08/19 08:57:51;;;;;;;25.45;20.27;;;;;;;22.04;85.38;69218.91;4938624;28;20183;-78
2022/08/19 09:00:42;;;;;;;27.30;21.73;;;;;;;22.03;85.12;69217.19;4942107;28;20059;-78
2022/08/19 09:03:22;;;;;;;24.10;21.33;;;;;;;22.18;84.85;69231.66;4925803;29;20040;-78
2022/08/19 09:06:06;;;;;;;26.15;20.67;;;;;;;22.26;82.82;69242.97;4932148;28;20043;-78
2022/08/19 09:08:41;;;;;;;28.58;21.58;;;;;;;22.26;83.57;69243.53;4937884;28;20039;-75
2022/08/19 09:11:19;;;;;;;26.65;23.85;;;;;;;22.40;83.58;69261.13;4948849;28;20047;-78
2022/08/19 09:14:06;;;;;;;22.58;19.58;;;;;;;22.50;78.35;69267.16;4945665;28;20035;-78
2022/08/19 09:16:32;;;;;;;23.13;20.07;;;;;;;22.62;79.64;69280.34;4946669;28;20046;-78
2022/08/19 09:19:03;;;;;;;20.38;18.17;;;;;;;22.63;79.32;69282.03;4934086;28;20047;-78
2022/08/19 09:21:29;;;;;;;23.40;18.48;;;;;;;22.61;76.63;69279.16;4937219;28;20090;-78
2022/08/19 09:23:55;;;;;;;20.85;17.50;;;;;;;22.81;75.86;69306.94;4936145;28;20040;-78
2022/08/19 09:26:22;;;;;;;21.55;17.10;;;;;;;22.79;74.92;69299.22;4931555;28;20039;-78
2022/08/19 09:28:50;;;;;;;21.50;17.55;;;;;;;22.69;75.97;69288.91;4935857;28;20043;-77
2022/08/19 09:31:18;;;;;;;21.50;16.20;;;;;;;22.83;74.67;69307.09;4935591;28;20048;-77
2022/08/19 09:33:44;;;;;;;14.57;12.63;;;;;;;22.94;74.10;69316.41;4947345;28;20047;-77
2022/08/19 09:36:12;;;;;;;16.17;12.55;;;;;;;22.98;71.89;69323.72;4940895;28;20126;-77
2022/08/19 09:38:40;;;;;;;16.73;14.93;;;;;;;22.98;71.58;69321.56;4928509;29;20538;-77
2022/08/19 09:41:08;;;;;;;18.85;15.57;;;;;;;22.89;71.85;69316.66;4928898;29;20050;-78
2022/08/19 09:43:36;;;;;;;19.58;14.50;;;;;;;22.91;73.35;69315.69;4930017;28;20401;-78
2022/08/19 09:46:05;;;;;;;21.65;16.80;;;;;;;23.04;73.44;69333.31;4943557;28;20058;-77
2022/08/19 09:48:32;;;;;;;21.17;17.13;;;;;;;23.01;72.71;69329.88;4942724;28;20043;-78
2022/08/19 09:51:25;;;;;;;21.02;17.58;;;;;;;23.20;72.85;69348.91;4953769;28;20036;-78
2022/08/19 09:53:53;;;;;;;22.83;20.17;;;;;;;23.22;72.55;69352.78;4943035;28;20503;-78
2022/08/19 09:56:20;;;;;;;23.55;19.75;;;;;;;23.14;72.65;69342.06;4936596;28;20128;-78
2022/08/19 09:58:46;;;;;;;24.08;20.77;;;;;;;23.22;73.80;69347.34;4940813;28;20435;-78
2022/08/19 10:01:20;;;;;;;24.58;20.52;;;;;;;23.43;74.11;69374.13;4946935;28;20054;-78
2022/08/19 10:03:52;;;;;;;23.50;18.73;;;;;;;23.56;73.49;69385.72;4946020;28;20050;-78
2022/08/19 10:06:18;;;;;;;23.45;19.83;;;;;;;23.75;72.59;69409.69;4944333;28;20589;-78
2022/08/19 10:08:44;;;;;;;27.45;20.85;;;;;;;23.69;71.56;69400.63;4946801;28;20054;-78
2022/08/19 10:11:10;;;;;;;25.02;20.60;;;;;;;23.74;72.08;69405.81;4954000;29;20530;-78
2022/08/19 10:13:36;;;;;;;22.83;19.35;;;;;;;23.91;72.23;69425.31;4955923;28;20047;-78
2022/08/19 10:16:15;;;;;;;24.05;18.52;;;;;;;24.09;69.97;69448.09;4944494;28;20047;-78
2022/08/19 10:18:44;;;;;;;25.90;19.65;;;;;;;24.09;69.63;69442.66;4941572;28;20515;-79
2022/08/19 10:21:14;;;;;;;22.25;17.80;;;;;;;24.09;69.57;69445.94;4954505;28;20094;-78
2022/08/19 10:23:46;;;;;;;22.13;19.05;;;;;;;24.19;68.19;69453.53;4955444;28;20043;-79
2022/08/19 10:26:18;;;;;;;21.88;19.58;;;;;;;24.16;68.83;69455.53;4938234;28;20043;-78
2022/08/19 10:28:44;;;;;;;17.35;15.48;;;;;;;24.23;68.02;69466.84;4955561;28;20043;-79
2022/08/19 10:31:13;;;;;;;19.90;17.80;;;;;;;24.24;67.08;69461.97;4945315;28;20511;-78
2022/08/19 10:33:39;;;;;;;19.35;17.00;;;;;;;24.19;67.57;69458.97;4950821;29;20035;-78
2022/08/19 10:36:14;;;;;;;20.45;18.13;;;;;;;24.39;66.99;69481.91;4938485;28;20407;-78
2022/08/19 10:38:41;;;;;;;22.52;20.08;;;;;;;24.38;67.13;69478.03;4956051;28;20403;-78
2022/08/19 10:41:30;;;;;;;19.75;17.10;;;;;;;24.51;66.26;69498.41;4951673;28;20050;-78
2022/08/19 10:43:59;;;;;;;17.95;16.05;;;;;;;24.61;63.60;69503.28;4946182;28;20134;-77
2022/08/19 10:46:26;;;;;;;14.60;12.68;;;;;;;24.74;64.13;69516.06;4938646;29;20055;-78
2022/08/19 10:48:53;;;;;;;19.33;13.57;;;;;;;24.90;63.90;69538.69;4942267;28;20072;-78
2022/08/19 10:54:04;;;;;;;15.40;12.65;;;;;;;25.27;61.29;69577.28;4954994;28;20565;-77
2022/08/19 10:59:15;;;;;;;13.95;11.00;;;;;;;25.38;58.43;69589.91;4937416;28;20122;-79
2022/08/19 11:01:42;;;;;;;17.50;13.18;;;;;;;25.36;59.42;69588.19;4934473;29;20508;-78
2022/08/19 11:04:10;;;;;;;17.33;14.70;;;;;;;25.40;60.23;69595.50;4938002;29;20071;-78
2022/08/19 11:06:38;;;;;;;16.15;13.13;;;;;;;25.37;59.06;69589.31;4937309;29;20444;-78
2022/08/19 11:09:04;;;;;;;16.10;11.70;;;;;;;25.30;57.99;69586.75;4934101;29;20046;-77
2022/08/19 11:11:30;;;;;;;15.52;11.15;;;;;;;25.37;57.04;69592.06;4937783;29;20052;-78
2022/08/19 11:13:55;;;;;;;12.20;10.45;;;;;;;25.37;57.60;69592.06;4938837;29;20046;-79
2022/08/19 11:16:23;;;;;;;13.95;11.85;;;;;;;25.47;57.76;69599.66;4937911;29;20035;-78
2022/08/19 11:18:52;;;;;;;12.23;10.68;;;;;;;25.63;57.03;69623.47;4937334;29;20040;-79
2022/08/19 11:21:22;;;;;;;18.77;12.20;;;;;;;25.66;55.29;69622.03;4931745;29;20043;-78
2022/08/19 11:23:49;;;;;;;15.32;11.52;;;;;;;25.85;56.19;69643.28;4933946;29;21633;-79
2022/08/19 11:26:16;;;;;;;13.77;9.63;;;;;;;25.89;54.81;69644.56;4934109;29;20066;-79
2022/08/19 11:28:41;;;;;;;11.18;8.77;;;;;;;25.84;53.00;69642.16;4934198;29;20050;-79
2022/08/19 11:31:12;;;;;;;13.40;10.50;;;;;;;25.81;54.07;69638.13;4948308;28;20107;-79
2022/08/19 11:33:38;;;;;;;16.92;12.77;;;;;;;25.81;54.44;69644.13;4949230;28;20070;-79
2022/08/19 11:36:03;;;;;;;16.40;12.85;;;;;;;25.72;55.04;69627.78;4934506;29;20056;-77
2022/08/19 11:38:30;;;;;;;17.00;13.27;;;;;;;25.76;55.43;69630.22;4934083;28;20085;-78
2022/08/19 11:41:02;;;;;;;15.73;12.65;;;;;;;25.60;55.17;69620.59;4948349;28;20131;-78
2022/08/19 11:43:31;;;;;;;13.07;10.77;;;;;;;25.68;55.75;69626.47;4933089;29;20035;-76
2022/08/19 11:45:57;;;;;;;10.00;8.20;;;;;;;25.71;52.90;69627.19;4936661;29;20063;-78
2022/08/19 11:48:24;;;;;;;15.20;11.70;;;;;;;25.68;54.61;69626.47;4940317;29;20506;-77
2022/08/19 11:50:51;;;;;;;15.27;12.32;;;;;;;25.62;54.80;69622.31;4944416;28;20066;-78
2022/08/19 11:53:19;;;;;;;14.48;10.40;;;;;;;25.52;54.20;69608.13;4951203;29;20032;-77
2022/08/19 11:55:46;;;;;;;16.85;13.27;;;;;;;25.61;55.00;69616.31;4946499;28;20075;-78
2022/08/19 11:58:13;;;;;;;15.02;9.43;;;;;;;25.65;53.97;69617.59;4945665;29;21237;-78
2022/08/19 12:00:39;;;;;;;9.07;6.10;;;;;;;25.78;50.42;69637.97;4933778;29;20296;-78
2022/08/19 12:03:05;;;;;;;11.25;9.50;;;;;;;25.84;51.65;69641.56;4935369;29;20036;-77
2022/08/19 12:05:31;;;;;;;16.67;11.63;;;;;;;25.81;52.42;69638.13;4933730;29;20110;-79